createdAt,value
2018-02-23T00:01:51.035Z,58.40
2018-02-23T00:04:20.798Z,58.30
2018-02-23T00:06:50.904Z,57.80
2018-02-23T00:09:20.308Z,58.00
2018-02-23T00:11:50.091Z,58.00
2018-02-23T00:14:19.860Z,57.90
2018-02-23T00:16:57.702Z,57.00
2018-02-23T00:19:27.442Z,57.20
2018-02-23T00:21:56.993Z,57.80
2018-02-23T00:24:26.719Z,58.30
2018-02-23T00:26:56.128Z,58.40
2018-02-23T00:29:28.296Z,57.80
2018-02-23T00:32:00.422Z,57.90
2018-02-23T00:34:30.788Z,57.70
2018-02-23T00:37:00.185Z,58.80
2018-02-23T00:39:29.683Z,60.10
2018-02-23T00:41:59.337Z,59.90
2018-02-23T00:44:28.692Z,60.40
2018-02-23T00:46:58.042Z,61.00
2018-02-23T00:49:31.562Z,61.30
2018-02-23T00:52:05.410Z,62.40
2018-02-23T00:54:35.996Z,62.40
2018-02-23T00:57:05.697Z,62.10
2018-02-23T00:59:35.197Z,62.60
2018-02-23T01:02:04.621Z,62.80
2018-02-23T01:04:34.922Z,62.20
2018-02-23T01:07:04.895Z,62.20
2018-02-23T01:09:34.448Z,62.20
2018-02-23T01:12:03.943Z,62.10
2018-02-23T01:14:33.620Z,62.30
2018-02-23T01:17:03.328Z,61.90
2018-02-23T01:19:33.191Z,61.90
2018-02-23T01:22:02.993Z,62.10
2018-02-23T01:24:32.800Z,61.90
2018-02-23T01:27:08.116Z,62.20
2018-02-23T01:29:47.440Z,62.10
2018-02-23T01:32:17.105Z,62.30
2018-02-23T01:34:57.347Z,62.30
2018-02-23T01:37:26.977Z,63.00
2018-02-23T01:39:57.410Z,62.90
2018-02-23T01:42:27.650Z,63.00
2018-02-23T01:44:57.221Z,62.90
2018-02-23T01:47:26.773Z,62.90
2018-02-23T01:49:56.170Z,62.90
2018-02-23T01:52:25.592Z,62.80
2018-02-23T01:54:55.248Z,62.80
2018-02-23T01:57:25.510Z,62.40
2018-02-23T01:59:55.070Z,62.40
2018-02-23T02:02:37.691Z,62.20
2018-02-23T02:05:18.354Z,62.50
2018-02-23T02:07:48.202Z,62.20
2018-02-23T02:10:17.580Z,62.60
2018-02-23T02:12:47.900Z,62.30
2018-02-23T02:15:17.523Z,62.30
2018-02-23T02:17:47.196Z,61.80
2018-02-23T02:20:18.252Z,62.00
2018-02-23T02:22:47.867Z,62.10
2018-02-23T02:25:22.346Z,62.00
2018-02-23T02:27:52.199Z,62.20
2018-02-23T02:30:22.452Z,62.30
2018-02-23T02:32:51.880Z,62.30
2018-02-23T02:35:21.526Z,62.70
2018-02-23T02:37:51.521Z,63.00
2018-02-23T02:40:20.944Z,63.20
2018-02-23T02:42:50.332Z,63.60
2018-02-23T02:45:19.905Z,63.90
2018-02-23T02:47:49.345Z,64.10
2018-02-23T02:50:18.816Z,64.40
2018-02-23T02:52:48.383Z,65.20
2018-02-23T02:55:18.625Z,65.70
2018-02-23T02:57:48.145Z,65.70
2018-02-23T03:00:17.569Z,66.00
2018-02-23T03:02:47.106Z,66.50
2018-02-23T03:05:16.569Z,66.70
2018-02-23T03:07:46.432Z,66.90
2018-02-23T03:10:15.866Z,67.00
2018-02-23T03:12:45.340Z,67.00
2018-02-23T03:15:14.724Z,67.20
2018-02-23T03:17:44.223Z,67.60
2018-02-23T03:20:13.589Z,67.70
2018-02-23T03:22:43.000Z,67.50
2018-02-23T03:25:12.426Z,67.50
2018-02-23T03:27:41.752Z,67.60
2018-02-23T03:30:11.244Z,67.70
2018-02-23T03:32:41.068Z,68.00
2018-02-23T03:35:11.265Z,68.30
2018-02-23T03:37:41.514Z,68.40
2018-02-23T03:40:11.067Z,68.40
2018-02-23T03:42:40.530Z,69.00
2018-02-23T03:45:10.608Z,69.40
2018-02-23T03:47:40.724Z,69.50
2018-02-23T03:50:10.859Z,69.70
2018-02-23T03:52:40.988Z,69.90
2018-02-23T03:55:10.449Z,69.90
2018-02-23T03:57:39.838Z,70.50
2018-02-23T04:00:09.232Z,70.80
2018-02-23T04:02:38.760Z,71.00
2018-02-23T04:05:08.147Z,70.90
2018-02-23T04:07:37.665Z,70.90
2018-02-23T04:10:07.463Z,71.20
2018-02-23T04:12:37.702Z,71.50
2018-02-23T04:15:07.235Z,71.50
2018-02-23T04:17:36.690Z,71.50
2018-02-23T04:20:06.142Z,71.70
2018-02-23T04:22:37.185Z,71.80
2018-02-23T04:25:06.682Z,71.80
2018-02-23T04:27:36.172Z,72.40
2018-02-23T04:30:05.668Z,71.70
2018-02-23T04:32:35.202Z,71.70
2018-02-23T04:35:04.664Z,71.70
2018-02-23T04:37:34.112Z,72.00
2018-02-23T04:40:03.760Z,71.90
2018-02-23T04:42:33.947Z,72.20
2018-02-23T04:45:03.482Z,72.30
2018-02-23T04:47:35.100Z,72.20
2018-02-23T04:50:04.581Z,72.20
2018-02-23T04:52:34.045Z,73.00
2018-02-23T04:55:04.380Z,72.30
2018-02-23T04:57:34.584Z,72.20
2018-02-23T05:00:04.803Z,72.20
2018-02-23T05:02:34.278Z,72.10
2018-02-23T05:05:03.782Z,71.70
2018-02-23T05:07:33.397Z,72.00
2018-02-23T05:10:03.601Z,71.80
2018-02-23T05:12:32.986Z,71.80
2018-02-23T05:15:03.300Z,71.50
2018-02-23T05:17:33.935Z,71.60
2018-02-23T05:20:03.492Z,71.60
2018-02-23T05:22:33.013Z,71.80
2018-02-23T05:25:02.710Z,71.10
2018-02-23T05:27:32.433Z,70.90
2018-02-23T05:30:01.837Z,70.90
2018-02-23T05:32:32.100Z,71.20
2018-02-23T05:35:01.604Z,71.20
2018-02-23T05:37:31.088Z,71.10
2018-02-23T05:40:01.325Z,71.90
2018-02-23T05:42:31.181Z,71.90
2018-02-23T05:45:01.452Z,71.60
2018-02-23T05:47:32.288Z,71.80
2018-02-23T05:50:01.794Z,71.80
2018-02-23T05:52:32.164Z,71.50
2018-02-23T05:55:01.871Z,71.50
2018-02-23T05:57:31.309Z,71.20
2018-02-23T06:00:01.868Z,70.60
2018-02-23T06:02:32.096Z,70.60
2018-02-23T06:24:58.394Z,70.70
2018-02-23T06:27:27.806Z,70.70
2018-02-23T06:29:58.575Z,70.60
2018-02-23T06:32:28.226Z,70.70
2018-02-23T06:34:57.509Z,70.70
2018-02-23T06:37:27.650Z,71.10
2018-02-23T06:39:57.172Z,71.00
2018-02-23T06:42:26.663Z,71.20
2018-02-23T06:44:56.814Z,71.10
2018-02-23T06:47:26.270Z,71.00
2018-02-23T06:49:55.694Z,70.70
2018-02-23T06:52:25.656Z,70.20
2018-02-23T06:54:55.862Z,70.20
2018-02-23T06:57:25.108Z,70.10
2018-02-23T06:59:54.535Z,70.10
2018-02-23T07:02:24.516Z,70.10
2018-02-23T07:04:54.060Z,69.90
2018-02-23T07:07:23.956Z,69.70
2018-02-23T07:09:54.191Z,68.80
2018-02-23T07:12:23.527Z,67.40
2018-02-23T07:14:54.402Z,66.90
2018-02-23T07:17:24.624Z,66.90
2018-02-23T07:19:54.513Z,66.80
2018-02-23T07:22:23.735Z,66.40
2018-02-23T07:24:53.382Z,63.50
2018-02-23T07:27:22.678Z,63.60
2018-02-23T07:29:52.004Z,63.80
2018-02-23T07:32:22.019Z,61.70
2018-02-23T07:34:52.784Z,61.70
2018-02-23T07:37:22.483Z,62.10
2018-02-23T07:39:53.647Z,62.10
2018-02-23T07:42:22.902Z,62.50
2018-02-23T07:44:52.867Z,61.40
2018-02-23T07:47:30.550Z,57.80
2018-02-23T07:50:12.545Z,57.20
2018-02-23T07:52:43.317Z,55.20
2018-02-23T07:55:12.912Z,54.70
2018-02-23T07:57:42.599Z,53.90
2018-02-23T08:00:12.839Z,52.60
2018-02-23T08:02:42.313Z,52.70
2018-02-23T08:05:12.303Z,51.50
2018-02-23T08:07:44.287Z,51.50
2018-02-23T08:10:15.229Z,51.20
2018-02-23T08:12:44.594Z,50.60
2018-02-23T08:15:14.028Z,50.40
2018-02-23T08:17:43.515Z,50.00
2018-02-23T08:20:13.105Z,50.20
2018-02-23T08:22:43.413Z,50.60
2018-02-23T08:25:12.854Z,50.70
2018-02-23T08:27:48.873Z,50.90
2018-02-23T08:30:21.024Z,50.60
2018-02-23T08:32:50.379Z,50.60
2018-02-23T08:35:19.763Z,50.00
2018-02-23T08:37:52.481Z,49.50
2018-02-23T08:40:22.658Z,48.30
2018-02-23T08:42:52.159Z,48.30
2018-02-23T08:45:21.975Z,48.30
2018-02-23T08:47:51.366Z,47.50
2018-02-23T08:50:20.761Z,47.70
2018-02-23T08:52:50.219Z,46.80
2018-02-23T08:55:19.839Z,46.70
2018-02-23T08:57:49.299Z,45.60
2018-02-23T09:00:19.212Z,44.80
2018-02-23T09:02:48.574Z,44.10
2018-02-23T09:05:17.908Z,44.20
2018-02-23T09:07:49.409Z,44.60
2018-02-23T09:10:18.791Z,44.40
2018-02-23T09:12:48.022Z,43.70
2018-02-23T09:15:17.465Z,43.60
2018-02-23T09:17:46.879Z,43.50
2018-02-23T09:20:16.583Z,43.40
2018-02-23T09:22:45.942Z,42.90
2018-02-23T09:25:15.992Z,43.00
2018-02-23T09:27:45.399Z,43.00
2018-02-23T09:30:14.612Z,42.90
2018-02-23T09:32:44.210Z,42.90
2018-02-23T09:35:13.514Z,42.80
2018-02-23T09:37:42.918Z,42.50
2018-02-23T09:40:12.267Z,42.50
2018-02-23T09:42:41.756Z,42.60
2018-02-23T09:45:11.315Z,41.70
2018-02-23T09:47:40.795Z,41.40
2018-02-23T09:50:10.683Z,41.30
2018-02-23T09:52:41.292Z,41.60
2018-02-23T09:55:11.911Z,41.60
2018-02-23T09:57:41.594Z,42.00
2018-02-23T10:00:11.016Z,42.20
2018-02-23T10:02:43.296Z,41.80
2018-02-23T10:05:15.606Z,40.60
2018-02-23T10:07:48.356Z,40.10
2018-02-23T10:10:17.598Z,40.20
2018-02-23T10:12:47.460Z,40.90
2018-02-23T10:15:17.201Z,40.30
